createdAt,value
2019-01-06T00:00:58.453Z,2.17
2019-01-06T00:03:29.637Z,2.40
2019-01-06T00:06:09.567Z,2.15
2019-01-06T00:08:40.317Z,2.00
2019-01-06T00:11:36.066Z,2.37
2019-01-06T00:14:22.084Z,2.25
2019-01-06T00:16:58.781Z,2.00
2019-01-06T00:19:41.328Z,2.15
2019-01-06T00:22:28.121Z,2.25
2019-01-06T00:25:07.933Z,2.45
2019-01-06T00:27:44.633Z,1.87
2019-01-06T00:30:27.328Z,2.05
2019-01-06T00:32:58.068Z,2.05
2019-01-06T00:35:44.176Z,2.05
2019-01-06T00:38:21.139Z,2.05
2019-01-06T00:40:55.034Z,2.27
2019-01-06T00:43:41.560Z,2.55
2019-01-06T00:46:12.314Z,2.75
2019-01-06T00:48:45.478Z,3.05
2019-01-06T00:51:16.234Z,3.58
2019-01-06T00:54:03.104Z,3.75
2019-01-06T00:56:42.644Z,4.10
2019-01-06T00:59:31.431Z,4.15
2019-01-06T01:02:17.430Z,4.40
2019-01-06T01:05:04.466Z,6.10
2019-01-06T01:07:41.181Z,6.15
2019-01-06T01:10:28.331Z,5.85
2019-01-06T01:13:01.705Z,6.17
2019-01-06T01:15:32.463Z,5.87
2019-01-06T01:18:19.105Z,5.70
2019-01-06T01:21:01.850Z,5.65
2019-01-06T01:23:44.672Z,5.90
2019-01-06T01:26:18.379Z,6.95
2019-01-06T01:29:05.663Z,7.72
2019-01-06T01:31:51.452Z,6.40
2019-01-06T01:34:31.101Z,7.65
2019-01-06T01:37:14.138Z,7.00
2019-01-06T01:40:02.749Z,6.85
2019-01-06T01:42:45.449Z,7.20
2019-01-06T01:45:22.122Z,7.08
2019-01-06T01:47:55.615Z,6.78
2019-01-06T01:50:32.159Z,7.47
2019-01-06T01:53:19.372Z,7.40
2019-01-06T01:55:56.125Z,7.08
2019-01-06T01:58:26.858Z,7.40
2019-01-06T02:01:15.988Z,6.70
2019-01-06T02:03:49.318Z,7.03
2019-01-06T02:06:36.291Z,6.30
2019-01-06T02:09:08.371Z,6.53
2019-01-06T02:11:55.602Z,7.05
2019-01-06T02:14:26.336Z,6.17
2019-01-06T02:17:12.472Z,6.92
2019-01-06T02:19:59.320Z,6.28
2019-01-06T02:22:46.157Z,6.65
2019-01-06T02:25:16.897Z,7.15
2019-01-06T02:27:53.322Z,6.30
2019-01-06T02:30:26.739Z,6.90
2019-01-06T02:32:57.497Z,7.47
2019-01-06T02:35:34.046Z,7.30
2019-01-06T02:38:07.257Z,7.15
2019-01-06T02:40:37.994Z,7.65
2019-01-06T02:43:14.461Z,7.80
2019-01-06T02:46:01.420Z,8.88
2019-01-06T02:48:44.009Z,8.65
2019-01-06T02:51:14.759Z,9.33
2019-01-06T02:54:01.958Z,8.93
2019-01-06T02:56:49.017Z,8.85
2019-01-06T02:59:25.653Z,10.15
2019-01-06T03:02:02.541Z,10.45
2019-01-06T03:04:36.245Z,9.23
2019-01-06T03:07:09.951Z,11.83
2019-01-06T03:09:56.621Z,9.83
2019-01-06T03:12:43.552Z,10.03
2019-01-06T03:15:16.986Z,9.35
2019-01-06T03:17:50.455Z,9.83
2019-01-06T03:20:37.448Z,9.50
2019-01-06T03:23:17.028Z,10.75
2019-01-06T03:25:47.766Z,10.65
2019-01-06T03:28:35.106Z,10.32
2019-01-06T03:31:17.826Z,11.12
2019-01-06T03:33:54.554Z,10.60
2019-01-06T03:36:41.823Z,10.40
2019-01-06T03:39:21.663Z,10.20
2019-01-06T03:42:08.817Z,10.68
2019-01-06T03:44:39.580Z,10.25
2019-01-06T03:47:16.011Z,11.75
2019-01-06T03:49:46.769Z,10.68
2019-01-06T03:52:32.838Z,10.00
2019-01-06T03:55:03.601Z,11.78
2019-01-06T03:57:50.475Z,10.98
2019-01-06T04:00:43.353Z,10.48
2019-01-06T04:03:20.093Z,12.78
2019-01-06T04:05:53.803Z,12.05
2019-01-06T04:08:41.104Z,11.97
2019-01-06T04:11:26.881Z,11.53
2019-01-06T04:14:03.368Z,12.98
2019-01-06T04:16:49.536Z,13.00
2019-01-06T04:19:26.547Z,12.28
2019-01-06T04:21:57.285Z,13.13
2019-01-06T04:24:30.727Z,13.25
2019-01-06T04:27:10.570Z,14.07
2019-01-06T04:29:47.012Z,13.65
2019-01-06T04:32:26.907Z,14.03
2019-01-06T04:35:03.589Z,12.88
2019-01-06T04:37:37.480Z,13.62
2019-01-06T04:40:24.800Z,13.50
2019-01-06T04:43:10.582Z,12.90
2019-01-06T04:45:47.126Z,13.48
2019-01-06T04:48:17.873Z,13.13
2019-01-06T04:50:55.080Z,15.13
2019-01-06T04:53:25.819Z,13.65
2019-01-06T04:56:05.556Z,15.30
2019-01-06T04:58:39.252Z,13.58
2019-01-06T05:01:26.063Z,13.50
2019-01-06T05:03:59.450Z,12.40
2019-01-06T05:06:36.307Z,13.20
2019-01-06T05:09:24.146Z,13.93
2019-01-06T05:11:55.055Z,13.38
2019-01-06T05:14:31.796Z,14.00
2019-01-06T05:17:02.544Z,13.95
2019-01-06T05:19:49.493Z,13.65
2019-01-06T05:22:20.256Z,14.53
2019-01-06T05:24:50.985Z,12.93
2019-01-06T05:27:27.447Z,14.25
2019-01-06T05:29:58.187Z,12.98
2019-01-06T05:32:31.785Z,13.30
2019-01-06T05:35:05.495Z,13.32
2019-01-06T05:37:52.125Z,13.18
2019-01-06T05:40:28.598Z,11.90
2019-01-06T05:43:02.341Z,13.43
2019-01-06T05:45:44.702Z,12.88
2019-01-06T05:48:17.893Z,11.88
2019-01-06T05:50:54.705Z,12.18
2019-01-06T05:53:31.229Z,12.47
2019-01-06T05:56:01.973Z,12.55
2019-01-06T05:58:49.060Z,12.93
2019-01-06T06:01:31.646Z,13.65
2019-01-06T06:04:02.409Z,12.68
2019-01-06T06:07:11.386Z,12.60
2019-01-06T06:09:42.397Z,12.13
2019-01-06T06:12:13.143Z,13.35
2019-01-06T06:14:58.613Z,12.58
2019-01-06T06:17:41.301Z,12.40
2019-01-06T06:20:17.517Z,12.15
2019-01-06T06:22:48.255Z,12.30
2019-01-06T06:28:17.689Z,11.90
2019-01-06T06:30:48.411Z,11.75
2019-01-06T06:33:35.419Z,12.33
2019-01-06T06:36:11.930Z,12.05
2019-01-06T06:38:54.691Z,11.85
2019-01-06T06:41:34.332Z,11.48
2019-01-06T06:44:11.238Z,10.38
2019-01-06T06:46:48.158Z,11.68
2019-01-06T06:49:35.455Z,10.72
2019-01-06T06:52:24.255Z,10.80
2019-01-06T06:55:11.366Z,11.18
2019-01-06T06:58:13.812Z,11.08
2019-01-06T07:01:10.499Z,10.63
2019-01-06T07:03:54.484Z,9.83
2019-01-06T07:06:40.300Z,10.70
2019-01-06T07:09:22.842Z,10.35
2019-01-06T07:12:09.987Z,10.30
2019-01-06T07:14:43.445Z,9.65
2019-01-06T07:17:47.189Z,11.25
2019-01-06T07:20:25.167Z,10.40
2019-01-06T07:22:59.017Z,9.65
2019-01-06T07:25:35.771Z,9.10
2019-01-06T07:28:12.169Z,9.30
2019-01-06T07:30:48.879Z,9.73
2019-01-06T07:33:36.280Z,9.45
2019-01-06T07:36:25.133Z,9.50
2019-01-06T07:39:12.055Z,8.80
2019-01-06T07:44:37.081Z,8.80
2019-01-06T07:47:19.778Z,14.90
2019-01-06T07:49:50.538Z,9.70
2019-01-06T07:52:30.341Z,8.63
2019-01-06T07:55:04.053Z,8.83
2019-01-06T07:57:37.801Z,8.53
2019-01-06T08:00:15.152Z,9.35
2019-01-06T08:02:57.190Z,7.42
2019-01-06T08:05:42.987Z,9.60
2019-01-06T08:08:31.628Z,8.05
2019-01-06T08:11:02.386Z,7.50
2019-01-06T08:13:50.564Z,7.45
2019-01-06T08:16:21.324Z,7.45
2019-01-06T08:19:09.758Z,7.65
2019-01-06T08:21:55.442Z,8.55
2019-01-06T08:24:34.834Z,7.00
2019-01-06T08:27:17.773Z,7.60
2019-01-06T08:29:48.510Z,6.37
2019-01-06T08:32:19.262Z,6.62
2019-01-06T08:35:06.486Z,7.03
2019-01-06T08:37:43.110Z,6.80
2019-01-06T08:40:22.918Z,7.53
2019-01-06T08:43:10.246Z,7.03
2019-01-06T08:45:57.143Z,7.33
2019-01-06T08:48:33.656Z,6.75
2019-01-06T08:51:13.274Z,6.78
2019-01-06T08:53:44.011Z,7.03
2019-01-06T08:56:14.767Z,7.40
2019-01-06T08:58:45.499Z,6.78
2019-01-06T09:01:16.255Z,7.40
2019-01-06T09:03:49.386Z,6.30
2019-01-06T09:06:20.142Z,6.42
2019-01-06T09:09:06.989Z,6.80
2019-01-06T09:11:49.698Z,6.90
2019-01-06T09:14:38.909Z,5.72
2019-01-06T09:17:21.953Z,6.20
2019-01-06T09:19:52.685Z,6.20
2019-01-06T09:22:39.532Z,6.60
2019-01-06T09:25:26.277Z,5.40
2019-01-06T09:28:02.745Z,5.72
2019-01-06T09:30:45.592Z,6.50
2019-01-06T09:33:25.280Z,5.22
2019-01-06T09:35:58.449Z,5.70
2019-01-06T09:38:38.102Z,5.35
2019-01-06T09:41:23.901Z,5.15
2019-01-06T09:44:00.613Z,4.67
2019-01-06T09:46:47.542Z,4.60
2019-01-06T09:49:18.302Z,4.70
2019-01-06T09:52:05.343Z,4.30
2019-01-06T09:54:52.244Z,4.53
2019-01-06T09:57:41.281Z,4.37
2019-01-06T10:00:12.290Z,4.10
2019-01-06T10:02:45.737Z,3.75
2019-01-06T10:05:32.967Z,4.08
2019-01-06T10:08:03.707Z,4.55
2019-01-06T10:10:34.462Z,4.37
2019-01-06T10:13:21.375Z,4.25
2019-01-06T10:16:08.442Z,4.35
2019-01-06T10:18:45.150Z,4.00
2019-01-06T10:21:22.055Z,4.17
2019-01-06T10:23:55.738Z,3.45
2019-01-06T10:26:29.268Z,3.47
2019-01-06T10:29:00.089Z,3.67
2019-01-06T10:31:33.873Z,3.40
2019-01-06T10:34:20.926Z,3.67
2019-01-06T10:36:54.575Z,3.05
2019-01-06T10:39:37.621Z,2.67
2019-01-06T10:42:24.893Z,2.80
2019-01-06T10:45:01.584Z,2.60
2019-01-06T10:47:48.539Z,2.70
2019-01-06T10:50:24.778Z,2.65
2019-01-06T10:53:04.607Z,2.72
2019-01-06T10:55:38.102Z,2.70
2019-01-06T10:58:24.092Z,2.67
2019-01-06T11:01:00.812Z,2.40
2019-01-06T11:03:48.119Z,2.37
2019-01-06T11:06:35.495Z,2.58
2019-01-06T11:09:16.800Z,2.17
2019-01-06T11:11:50.558Z,2.12
2019-01-06T11:14:30.075Z,2.10
2019-01-06T11:17:17.359Z,2.25
2019-01-06T11:20:04.307Z,1.82
2019-01-06T11:22:40.076Z,1.98
2019-01-06T11:25:11.007Z,2.17
2019-01-06T11:27:41.727Z,2.10
2019-01-06T11:30:24.356Z,2.30
2019-01-06T11:33:17.211Z,1.70
2019-01-06T11:35:57.022Z,1.82
2019-01-06T11:38:46.218Z,2.05
2019-01-06T11:41:16.982Z,1.98
2019-01-06T11:43:50.554Z,2.10
2019-01-06T11:46:30.231Z,1.80
2019-01-06T11:49:17.722Z,2.12
2019-01-06T11:52:03.669Z,2.15
2019-01-06T11:54:34.531Z,2.20
2019-01-06T11:57:21.940Z,1.55
2019-01-06T11:59:52.682Z,1.30
2019-01-06T12:02:23.422Z,1.70
2019-01-06T12:05:00.377Z,1.45
2019-01-06T12:07:43.123Z,1.92
2019-01-06T12:10:13.952Z,1.77
2019-01-06T12:12:57.004Z,1.70
2019-01-06T12:15:30.501Z,1.90
2019-01-06T12:18:01.222Z,1.95
2019-01-06T12:20:41.245Z,1.32
2019-01-06T12:23:12.097Z,1.47
2019-01-06T12:25:42.846Z,2.00
2019-01-06T12:28:29.864Z,2.30
2019-01-06T12:31:16.860Z,1.75
2019-01-06T12:33:53.833Z,2.37
2019-01-06T12:36:33.806Z,1.80
2019-01-06T12:39:26.969Z,1.65
2019-01-06T12:41:57.710Z,2.02
2019-01-06T12:44:31.161Z,2.60
2019-01-06T12:47:18.257Z,2.10
2019-01-06T12:49:49.006Z,2.62
2019-01-06T12:52:55.691Z,2.50
2019-01-06T12:55:42.546Z,2.70
2019-01-06T12:58:29.705Z,2.45
2019-01-06T13:01:16.756Z,2.30
2019-01-06T13:03:47.710Z,2.75
2019-01-06T13:06:21.110Z,3.50
2019-01-06T13:08:54.685Z,3.20
2019-01-06T13:14:13.892Z,3.05
2019-01-06T13:16:44.743Z,3.42
2019-01-06T13:19:21.260Z,5.10
2019-01-06T13:22:10.474Z,3.67
2019-01-06T13:24:49.743Z,2.58
2019-01-06T13:27:23.422Z,3.30
2019-01-06T13:29:57.110Z,3.30
2019-01-06T13:32:44.106Z,3.00
2019-01-06T13:35:31.006Z,4.20
2019-01-06T13:38:10.661Z,3.65
2019-01-06T13:40:41.448Z,3.58
2019-01-06T13:43:15.232Z,4.33
2019-01-06T13:45:54.953Z,4.22
2019-01-06T13:48:41.914Z,3.25
2019-01-06T13:51:28.894Z,3.35
2019-01-06T13:54:16.006Z,3.40
2019-01-06T13:56:46.788Z,3.62
2019-01-06T13:59:33.877Z,3.08
2019-01-06T14:02:16.744Z,3.10
2019-01-06T14:05:03.998Z,3.33
2019-01-06T14:07:51.203Z,3.92
2019-01-06T14:10:28.033Z,4.35
2019-01-06T14:12:58.852Z,3.40
2019-01-06T14:15:32.306Z,4.45
2019-01-06T14:18:05.862Z,3.50
2019-01-06T14:20:53.231Z,3.65
2019-01-06T14:23:26.658Z,3.75
2019-01-06T14:26:00.473Z,3.50
2019-01-06T14:28:47.609Z,3.92
2019-01-06T14:31:24.208Z,3.62
2019-01-06T14:34:10.587Z,3.17
2019-01-06T14:36:44.132Z,3.10
2019-01-06T14:39:24.019Z,2.92
2019-01-06T14:42:11.026Z,3.10
2019-01-06T14:44:44.463Z,3.50
2019-01-06T14:47:27.480Z,3.40
2019-01-06T14:50:15.832Z,12.05
2019-01-06T14:53:01.739Z,5.15
2019-01-06T14:55:38.549Z,4.72
2019-01-06T14:58:09.387Z,3.15
2019-01-06T15:00:56.635Z,3.37
2019-01-06T15:03:43.520Z,3.30
2019-01-06T15:06:16.925Z,2.85
2019-01-06T15:09:13.030Z,3.25
2019-01-06T15:12:00.242Z,3.22
2019-01-06T15:14:33.825Z,3.50
2019-01-06T15:17:19.666Z,3.70
2019-01-06T15:20:06.612Z,3.90
2019-01-06T15:22:53.833Z,3.90
2019-01-06T15:25:24.639Z,3.45
2019-01-06T15:27:58.091Z,3.42
2019-01-06T15:30:45.368Z,4.15
2019-01-06T15:33:16.204Z,3.87
2019-01-06T15:36:02.743Z,3.42
2019-01-06T15:38:33.723Z,3.15
2019-01-06T15:41:22.880Z,3.08
2019-01-06T15:44:10.198Z,3.27
2019-01-06T15:46:49.782Z,3.10
2019-01-06T15:49:20.495Z,3.33
2019-01-06T15:51:51.329Z,3.47
2019-01-06T15:54:25.061Z,3.20
2019-01-06T15:57:11.030Z,4.25
2019-01-06T15:59:47.808Z,2.90
2019-01-06T16:02:27.808Z,2.95
2019-01-06T16:05:07.734Z,3.62
2019-01-06T16:07:38.496Z,3.87
2019-01-06T16:10:24.865Z,3.83
2019-01-06T16:13:11.528Z,3.47
2019-01-06T16:15:48.195Z,4.12
2019-01-06T16:18:25.112Z,4.00
2019-01-06T16:21:05.045Z,3.77
2019-01-06T16:23:44.869Z,3.98
2019-01-06T16:26:18.281Z,4.10
2019-01-06T16:28:57.843Z,4.80
2019-01-06T16:31:28.531Z,5.22
2019-01-06T16:33:59.299Z,4.90
2019-01-06T16:36:48.462Z,5.15
2019-01-06T16:39:35.399Z,6.03
2019-01-06T16:42:14.840Z,4.20
2019-01-06T16:45:01.998Z,5.22
2019-01-06T16:47:48.860Z,4.58
2019-01-06T16:50:37.923Z,4.72
2019-01-06T16:53:08.692Z,5.03
2019-01-06T16:55:55.648Z,4.72
2019-01-06T16:58:42.895Z,5.58
2019-01-06T17:01:16.343Z,5.08
2019-01-06T17:04:05.287Z,4.40
2019-01-06T17:06:38.818Z,4.08
2019-01-06T17:09:15.239Z,3.85
2019-01-06T17:12:01.815Z,3.52
2019-01-06T17:14:38.457Z,4.28
2019-01-06T17:17:18.767Z,4.42
2019-01-06T17:20:01.356Z,3.70
2019-01-06T17:22:48.537Z,3.42
2019-01-06T17:25:35.523Z,4.67
2019-01-06T17:28:06.253Z,3.92
2019-01-06T17:30:39.646Z,3.75
2019-01-06T17:33:26.626Z,4.30
2019-01-06T17:36:13.434Z,5.30
2019-01-06T17:38:50.218Z,18.82
2019-01-06T17:41:36.221Z,5.58
2019-01-06T17:44:12.975Z,5.65
2019-01-06T17:47:15.177Z,6.00
2019-01-06T17:49:46.574Z,4.62
2019-01-06T17:52:29.661Z,4.08
2019-01-06T17:55:18.699Z,4.90
2019-01-06T17:57:55.207Z,4.50
2019-01-06T18:00:38.016Z,4.47
2019-01-06T18:03:11.142Z,3.87
2019-01-06T18:05:50.381Z,4.65
2019-01-06T18:08:37.563Z,4.25
2019-01-06T18:11:17.031Z,4.67
2019-01-06T18:14:03.862Z,4.22
2019-01-06T18:16:46.349Z,4.37
2019-01-06T18:19:17.122Z,4.70
2019-01-06T18:21:47.888Z,4.67
2019-01-06T18:24:30.943Z,4.20
2019-01-06T18:27:20.824Z,4.28
2019-01-06T18:29:51.594Z,4.40
2019-01-06T18:32:24.902Z,4.95
2019-01-06T18:34:55.636Z,4.37
2019-01-06T18:37:41.391Z,4.90
2019-01-06T18:40:27.160Z,4.75
2019-01-06T18:43:00.351Z,4.80
2019-01-06T18:45:37.068Z,4.83
2019-01-06T18:48:22.960Z,5.05
2019-01-06T18:51:10.055Z,5.55
2019-01-06T18:53:40.815Z,5.30
2019-01-06T18:56:11.549Z,5.78
2019-01-06T18:58:57.412Z,6.85
2019-01-06T19:01:44.341Z,5.30
2019-01-06T19:04:33.468Z,5.60
2019-01-06T19:07:04.205Z,5.62
2019-01-06T19:09:44.030Z,5.58
2019-01-06T19:12:27.041Z,5.65
2019-01-06T19:15:00.202Z,5.55
2019-01-06T19:17:40.689Z,4.87
2019-01-06T19:20:13.502Z,5.47
2019-01-06T19:22:50.164Z,5.70
2019-01-06T19:25:37.038Z,5.33
2019-01-06T19:28:25.899Z,5.67
2019-01-06T19:31:05.631Z,5.12
2019-01-06T19:33:39.450Z,5.22
2019-01-06T19:36:28.586Z,5.87
2019-01-06T19:39:05.106Z,5.22
2019-01-06T19:41:51.909Z,6.45
2019-01-06T19:44:28.361Z,5.72
2019-01-06T19:47:14.364Z,5.72
2019-01-06T19:49:47.718Z,5.67
2019-01-06T19:55:30.190Z,6.10
2019-01-06T19:58:00.950Z,6.40
2019-01-06T20:00:31.681Z,6.20
2019-01-06T20:03:08.011Z,5.58
2019-01-06T20:05:44.312Z,5.83
2019-01-06T20:08:27.236Z,6.97
2019-01-06T20:11:03.900Z,5.78
2019-01-06T20:13:40.123Z,6.33
2019-01-06T20:16:16.822Z,7.47
2019-01-06T20:18:56.459Z,5.97
2019-01-06T20:21:43.539Z,6.33
2019-01-06T20:24:16.993Z,5.65
2019-01-06T20:26:59.631Z,7.78
2019-01-06T20:29:33.330Z,8.08
2019-01-06T20:32:22.388Z,6.15
2019-01-06T20:35:09.641Z,6.67
2019-01-06T20:37:55.441Z,6.97
2019-01-06T20:40:26.212Z,7.47
2019-01-06T20:42:59.947Z,7.42
2019-01-06T20:45:42.809Z,8.93
2019-01-06T20:48:13.546Z,8.35
2019-01-06T20:50:47.306Z,8.20
2019-01-06T20:53:21.102Z,8.13
2019-01-06T20:58:45.810Z,8.85
2019-01-06T21:01:38.995Z,9.25
2019-01-06T21:04:09.765Z,8.83
2019-01-06T21:06:52.493Z,9.80
2019-01-06T21:09:29.270Z,9.70
2019-01-06T21:12:00.000Z,9.90
2019-01-06T21:14:46.884Z,10.35
2019-01-06T21:17:17.616Z,9.68
2019-01-06T21:20:00.454Z,10.53
2019-01-06T21:22:40.160Z,10.60
2019-01-06T21:25:26.034Z,10.72
2019-01-06T21:28:13.244Z,10.45
2019-01-06T21:30:59.849Z,11.30
2019-01-06T21:33:36.245Z,11.83
2019-01-06T21:36:18.956Z,11.18
2019-01-06T21:39:07.975Z,10.93
2019-01-06T21:41:43.235Z,11.60
2019-01-06T21:44:26.042Z,11.45
2019-01-06T21:47:02.643Z,11.73
2019-01-06T21:49:48.683Z,12.25
2019-01-06T21:52:19.434Z,14.10
2019-01-06T21:55:06.325Z,12.28
2019-01-06T21:57:55.318Z,11.78
2019-01-06T22:00:42.471Z,11.15
2019-01-06T22:03:15.878Z,12.93
2019-01-06T22:05:55.606Z,11.48
2019-01-06T22:08:29.019Z,11.45
2019-01-06T22:16:15.680Z,12.07
2019-01-06T22:18:50.333Z,12.00
2019-01-06T22:21:31.240Z,11.80
2019-01-06T22:24:19.234Z,11.35
2019-01-06T22:26:50.980Z,11.95
2019-01-06T22:29:31.686Z,11.65
2019-01-06T22:32:06.369Z,12.23
2019-01-06T22:34:54.646Z,12.07
2019-01-06T22:37:29.304Z,11.88
2019-01-06T22:40:01.054Z,13.25
2019-01-06T22:42:33.846Z,13.13
2019-01-06T22:45:09.373Z,13.28
2019-01-06T22:47:57.550Z,12.65
2019-01-06T22:50:29.306Z,12.25
2019-01-06T22:53:12.835Z,12.80
2019-01-06T22:55:50.300Z,12.28
2019-01-06T22:58:22.091Z,13.38
2019-01-06T23:00:53.885Z,12.88
2019-01-06T23:03:37.395Z,13.43
2019-01-06T23:06:25.339Z,13.98
2019-01-06T23:09:06.024Z,12.55
2019-01-06T23:11:43.709Z,12.82
2019-01-06T23:14:24.598Z,12.98
2019-01-06T23:17:02.283Z,13.20
2019-01-06T23:19:37.032Z,13.32
2019-01-06T23:22:11.640Z,13.03
2019-01-06T23:24:52.284Z,13.90
2019-01-06T23:27:27.638Z,13.25
2019-01-06T23:30:11.135Z,13.45
2019-01-06T23:32:48.845Z,14.23
2019-01-06T23:35:26.405Z,15.18
2019-01-06T23:37:58.146Z,13.13
2019-01-06T23:40:35.594Z,13.55
2019-01-06T23:43:07.333Z,13.70
2019-01-06T23:45:39.060Z,14.03
2019-01-06T23:48:25.583Z,13.80
2019-01-06T23:51:12.272Z,14.20
2019-01-06T23:53:52.745Z,14.93
2019-01-06T23:56:26.906Z,13.75
2019-01-06T23:58:58.633Z,13.70
